createdAt,value
2022-12-18T00:00:30.983Z,83.86
2022-12-18T00:03:02.115Z,82.71
2022-12-18T00:05:31.745Z,82.96
2022-12-18T00:08:01.276Z,82.18
2022-12-18T00:10:31.637Z,83.12
2022-12-18T00:13:03.839Z,82.56
2022-12-18T00:15:36.347Z,82.73
2022-12-18T00:18:08.060Z,81.95
2022-12-18T00:20:40.429Z,81.96
2022-12-18T00:23:10.559Z,82.96
2022-12-18T00:25:40.280Z,82.65
2022-12-18T00:28:09.883Z,82.98
2022-12-18T00:30:39.473Z,83.44
2022-12-18T00:33:12.471Z,83.90
2022-12-18T00:35:42.627Z,84.26
2022-12-18T00:38:13.230Z,83.89
2022-12-18T00:40:43.227Z,84.27
2022-12-18T00:43:11.776Z,83.00
2022-12-18T00:45:42.423Z,83.29
2022-12-18T00:48:13.648Z,82.55
2022-12-18T00:50:43.359Z,83.62
2022-12-18T00:53:13.290Z,82.91
2022-12-18T00:55:43.953Z,82.09
2022-12-18T00:58:16.073Z,82.90
2022-12-18T01:00:45.935Z,82.80
2022-12-18T01:03:17.400Z,83.64
2022-12-18T01:05:47.070Z,82.46
2022-12-18T01:08:16.677Z,83.58
2022-12-18T01:10:46.690Z,84.11
2022-12-18T01:13:16.813Z,83.83
2022-12-18T01:15:51.455Z,82.88
2022-12-18T01:18:22.383Z,83.60
2022-12-18T01:20:51.893Z,83.87
2022-12-18T01:23:21.434Z,84.27
2022-12-18T01:25:51.069Z,84.26
2022-12-18T01:28:20.649Z,83.84
2022-12-18T01:30:50.164Z,83.82
2022-12-18T01:33:19.664Z,84.45
2022-12-18T01:35:50.623Z,83.88
2022-12-18T01:38:20.116Z,84.01
2022-12-18T01:40:49.712Z,84.59
2022-12-18T01:43:19.263Z,84.43
2022-12-18T01:45:49.080Z,83.20
2022-12-18T01:48:18.691Z,84.29
2022-12-18T01:50:51.367Z,83.37
2022-12-18T01:53:24.855Z,84.61
2022-12-18T01:55:56.114Z,83.99
2022-12-18T01:58:32.563Z,83.51
2022-12-18T02:01:02.444Z,84.22
2022-12-18T02:03:32.122Z,84.42
2022-12-18T02:06:12.907Z,84.50
2022-12-18T02:08:48.218Z,83.54
2022-12-18T02:11:26.893Z,84.25
2022-12-18T02:14:06.244Z,84.06
2022-12-18T02:16:45.143Z,84.71
2022-12-18T02:19:31.271Z,85.61
2022-12-18T02:22:14.097Z,85.38
2022-12-18T02:24:54.482Z,84.25
2022-12-18T02:27:25.483Z,83.77
2022-12-18T02:29:58.932Z,82.87
2022-12-18T02:32:36.711Z,82.74
2022-12-18T02:35:10.699Z,83.06
2022-12-18T02:37:42.714Z,83.77
2022-12-18T02:40:15.353Z,83.32
2022-12-18T02:42:46.543Z,82.79
2022-12-18T02:45:19.217Z,82.37
2022-12-18T02:47:52.007Z,82.38
2022-12-18T02:50:28.291Z,82.55
2022-12-18T02:53:12.572Z,83.38
2022-12-18T02:55:57.186Z,82.64
2022-12-18T02:58:36.409Z,82.82
2022-12-18T03:01:16.552Z,83.98
2022-12-18T03:03:52.357Z,84.16
2022-12-18T03:06:29.139Z,84.32
2022-12-18T03:09:01.781Z,83.76
2022-12-18T03:11:54.460Z,82.64
2022-12-18T03:14:28.514Z,82.60
2022-12-18T03:17:03.447Z,82.04
2022-12-18T03:19:35.683Z,81.45
2022-12-18T03:22:10.054Z,82.39
2022-12-18T03:24:55.753Z,81.99
2022-12-18T03:27:27.875Z,83.05
2022-12-18T03:30:08.636Z,83.11
2022-12-18T03:32:45.657Z,82.75
2022-12-18T03:35:19.286Z,83.88
2022-12-18T03:37:49.290Z,83.49
2022-12-18T03:40:19.133Z,84.35
2022-12-18T03:42:52.553Z,84.00
2022-12-18T03:45:29.802Z,83.24
2022-12-18T03:48:07.352Z,82.79
2022-12-18T03:50:49.952Z,83.17
2022-12-18T03:53:30.742Z,83.00
2022-12-18T03:56:03.292Z,82.30
2022-12-18T03:58:40.748Z,83.16
2022-12-18T04:01:29.731Z,83.69
2022-12-18T04:04:02.436Z,82.98
2022-12-18T04:06:37.425Z,83.71
2022-12-18T04:09:08.124Z,83.37
2022-12-18T04:11:43.359Z,82.38
2022-12-18T04:14:17.621Z,82.65
2022-12-18T04:16:50.172Z,83.06
2022-12-18T04:19:22.482Z,83.05
2022-12-18T04:21:54.923Z,82.96
2022-12-18T04:24:25.663Z,83.92
2022-12-18T04:27:10.153Z,82.79
2022-12-18T04:29:45.972Z,82.53
2022-12-18T04:32:17.127Z,83.29
2022-12-18T04:34:47.503Z,83.76
2022-12-18T04:37:17.113Z,83.82
2022-12-18T04:39:47.643Z,83.99
2022-12-18T04:42:24.314Z,83.61
2022-12-18T04:44:54.108Z,83.96
2022-12-18T04:47:25.175Z,83.95
2022-12-18T04:49:54.731Z,83.67
2022-12-18T04:52:26.822Z,83.31
2022-12-18T04:54:56.500Z,83.32
2022-12-18T04:57:26.113Z,83.65
2022-12-18T04:59:55.753Z,84.05
2022-12-18T05:02:26.876Z,83.33
2022-12-18T05:04:56.518Z,83.07
2022-12-18T05:07:26.040Z,83.25
2022-12-18T05:09:55.563Z,83.02
2022-12-18T05:12:25.148Z,83.96
2022-12-18T05:14:54.765Z,82.72
2022-12-18T05:17:24.272Z,83.42
2022-12-18T05:19:55.506Z,82.97
2022-12-18T05:22:26.101Z,82.16
2022-12-18T05:24:55.723Z,82.55
2022-12-18T05:27:25.212Z,83.30
2022-12-18T05:29:54.765Z,83.61
2022-12-18T05:32:24.303Z,82.66
2022-12-18T05:34:55.234Z,84.07
2022-12-18T05:37:24.832Z,82.81
2022-12-18T05:39:54.493Z,83.41
2022-12-18T05:42:24.014Z,83.53
2022-12-18T05:44:53.662Z,83.00
2022-12-18T05:47:23.213Z,82.86
2022-12-18T05:49:52.814Z,83.30
2022-12-18T05:52:23.828Z,83.69
2022-12-18T05:54:53.548Z,83.91
2022-12-18T05:57:23.135Z,83.97
2022-12-18T05:59:52.681Z,83.80
2022-12-18T06:02:22.680Z,84.21
2022-12-18T06:04:52.162Z,84.46
2022-12-18T06:07:21.723Z,83.75
2022-12-18T06:09:52.762Z,84.82
2022-12-18T06:12:22.367Z,84.09
2022-12-18T06:14:51.865Z,84.95
2022-12-18T06:17:21.442Z,83.36
2022-12-18T06:19:51.092Z,84.29
2022-12-18T06:22:21.138Z,83.93
2022-12-18T06:24:52.083Z,84.10
2022-12-18T06:27:21.874Z,84.00
2022-12-18T06:29:51.443Z,85.04
2022-12-18T06:32:21.225Z,83.94
2022-12-18T06:34:50.893Z,84.64
2022-12-18T06:37:20.473Z,83.68
2022-12-18T06:39:51.407Z,84.35
2022-12-18T06:42:20.990Z,83.67
2022-12-18T06:44:50.675Z,84.03
2022-12-18T06:47:20.320Z,83.81
2022-12-18T06:49:49.883Z,84.12
2022-12-18T06:52:19.452Z,83.43
2022-12-18T06:54:49.158Z,84.65
2022-12-18T06:57:20.374Z,85.26
2022-12-18T06:59:50.070Z,84.63
2022-12-18T07:02:20.060Z,84.84
2022-12-18T07:04:52.725Z,85.34
2022-12-18T07:07:22.307Z,85.61
2022-12-18T07:09:52.512Z,85.47
2022-12-18T07:12:23.671Z,84.38
2022-12-18T07:14:53.233Z,85.16
2022-12-18T07:17:22.765Z,84.38
2022-12-18T07:19:52.277Z,85.96
2022-12-18T07:22:21.846Z,84.92
2022-12-18T07:24:52.803Z,84.65
2022-12-18T07:27:24.142Z,86.34
2022-12-18T07:29:54.217Z,85.98
2022-12-18T07:32:23.882Z,85.61
2022-12-18T07:34:53.543Z,84.87
2022-12-18T07:37:23.210Z,84.16
2022-12-18T07:39:52.693Z,83.00
2022-12-18T07:42:36.695Z,83.26
2022-12-18T07:45:07.221Z,83.66
2022-12-18T07:47:37.580Z,84.05
2022-12-18T07:50:08.082Z,84.09
2022-12-18T07:52:37.744Z,84.07
2022-12-18T07:55:08.052Z,83.17
2022-12-18T07:57:50.435Z,83.41
2022-12-18T08:00:21.399Z,83.38
2022-12-18T08:02:51.059Z,83.24
2022-12-18T08:05:21.854Z,83.25
2022-12-18T08:07:51.601Z,83.47
2022-12-18T08:10:24.133Z,82.63
2022-12-18T08:12:57.043Z,82.69
2022-12-18T08:15:29.644Z,82.24
2022-12-18T08:17:59.393Z,81.95
2022-12-18T08:20:29.029Z,81.86
2022-12-18T08:22:59.251Z,81.47
2022-12-18T08:25:28.814Z,82.18
2022-12-18T08:28:00.344Z,82.04
2022-12-18T08:30:29.929Z,80.89
2022-12-18T08:32:59.764Z,80.84
2022-12-18T08:35:34.260Z,81.91
2022-12-18T08:38:06.015Z,80.94
2022-12-18T08:40:35.853Z,80.41
2022-12-18T08:43:24.359Z,81.79
2022-12-18T08:45:53.955Z,81.38
2022-12-18T08:48:23.636Z,81.43
2022-12-18T08:50:57.738Z,80.48
2022-12-18T08:53:30.332Z,80.85
2022-12-18T08:56:04.014Z,80.67
2022-12-18T08:58:34.995Z,79.71
2022-12-18T09:01:05.033Z,79.63
2022-12-18T09:03:35.845Z,79.72
2022-12-18T09:06:06.183Z,79.66
2022-12-18T09:08:37.870Z,79.58
2022-12-18T09:11:15.564Z,79.77
2022-12-18T09:13:46.574Z,79.79
2022-12-18T09:16:16.425Z,79.39
2022-12-18T09:18:46.152Z,79.30
2022-12-18T09:21:17.347Z,80.08
2022-12-18T09:23:51.317Z,79.33
2022-12-18T09:26:21.017Z,79.01
2022-12-18T09:28:52.332Z,79.17
2022-12-18T09:31:26.321Z,78.21
2022-12-18T09:33:57.861Z,78.57
2022-12-18T09:36:27.582Z,78.37
2022-12-18T09:38:57.448Z,78.64
2022-12-18T09:41:42.145Z,78.79
2022-12-18T09:44:24.949Z,78.85
2022-12-18T09:47:05.003Z,77.93
2022-12-18T09:49:38.442Z,78.62
2022-12-18T09:52:14.313Z,77.07
2022-12-18T09:54:48.634Z,76.23
2022-12-18T09:57:23.160Z,77.00
2022-12-18T09:59:59.144Z,77.94
2022-12-18T10:02:32.844Z,76.30
2022-12-18T10:05:08.337Z,76.54
2022-12-18T10:07:49.833Z,75.67
2022-12-18T10:10:33.317Z,75.79
2022-12-18T10:13:12.283Z,76.71
2022-12-18T10:15:55.254Z,75.20
2022-12-18T10:18:35.697Z,75.49
2022-12-18T10:21:11.919Z,75.00
2022-12-18T10:23:49.670Z,75.03
2022-12-18T10:26:19.642Z,74.40
2022-12-18T10:28:50.632Z,75.34
2022-12-18T10:31:24.584Z,76.16
2022-12-18T10:33:56.292Z,75.01
2022-12-18T10:36:26.527Z,75.02
2022-12-18T10:38:56.118Z,74.64
2022-12-18T10:41:29.703Z,74.87
2022-12-18T10:44:18.362Z,74.36
2022-12-18T10:46:51.759Z,74.26
2022-12-18T10:49:24.913Z,75.18
2022-12-18T10:52:06.835Z,74.75
2022-12-18T10:54:37.767Z,73.53
2022-12-18T10:57:35.296Z,73.06
2022-12-18T11:00:24.961Z,73.52
2022-12-18T11:02:57.015Z,73.54
2022-12-18T11:05:33.192Z,73.64
2022-12-18T11:08:03.828Z,73.72
2022-12-18T11:10:35.091Z,73.08
2022-12-18T11:13:19.932Z,74.00
2022-12-18T11:15:50.325Z,73.22
2022-12-18T11:18:27.603Z,74.73
2022-12-18T11:20:59.999Z,73.92
2022-12-18T11:23:30.149Z,74.65
2022-12-18T11:26:01.975Z,75.37
2022-12-18T11:28:41.876Z,74.41
2022-12-18T11:31:24.549Z,74.24
2022-12-18T11:34:28.779Z,74.70
2022-12-18T11:37:02.051Z,74.75
2022-12-18T11:39:37.899Z,74.03
2022-12-18T11:42:15.142Z,73.53
2022-12-18T11:44:51.237Z,73.11
2022-12-18T11:47:31.959Z,73.06
2022-12-18T11:50:06.210Z,73.54
2022-12-18T11:52:40.673Z,73.68
2022-12-18T11:55:16.329Z,74.03
2022-12-18T11:57:55.132Z,73.10
2022-12-18T12:00:26.061Z,73.16
2022-12-18T12:03:21.188Z,74.68
2022-12-18T12:06:05.273Z,73.83
2022-12-18T12:08:48.252Z,73.68
2022-12-18T12:11:28.309Z,73.45
2022-12-18T12:14:14.801Z,74.33
2022-12-18T12:16:52.452Z,72.12
2022-12-18T12:19:38.904Z,72.63
2022-12-18T12:22:17.683Z,72.76
2022-12-18T12:24:59.302Z,71.77
2022-12-18T12:27:41.003Z,72.07
2022-12-18T12:30:13.845Z,71.87
2022-12-18T12:33:15.362Z,71.29
2022-12-18T12:35:54.817Z,71.83
2022-12-18T12:38:30.682Z,71.25
2022-12-18T12:41:04.127Z,72.93
2022-12-18T12:43:49.562Z,71.99
2022-12-18T12:46:22.495Z,71.74
2022-12-18T12:48:54.932Z,72.13
2022-12-18T12:51:27.553Z,70.99
2022-12-18T12:54:00.700Z,70.82
2022-12-18T12:56:40.315Z,71.23
2022-12-18T12:59:16.554Z,71.28
2022-12-18T13:01:57.242Z,71.24
2022-12-18T13:04:37.383Z,70.55
2022-12-18T13:07:14.936Z,70.67
2022-12-18T13:10:26.809Z,70.53
2022-12-18T13:12:59.855Z,70.54
2022-12-18T13:15:38.323Z,70.15
2022-12-18T13:18:23.860Z,71.26
2022-12-18T13:21:06.452Z,69.70
2022-12-18T13:23:39.545Z,70.28
2022-12-18T13:26:37.943Z,71.40
2022-12-18T13:29:07.808Z,70.50
2022-12-18T13:32:23.447Z,70.84
2022-12-18T13:35:27.003Z,70.95
2022-12-18T13:37:57.642Z,71.12
2022-12-18T13:40:59.782Z,71.37
2022-12-18T13:43:44.666Z,71.75
2022-12-18T13:46:26.872Z,71.03
2022-12-18T13:49:04.241Z,70.62
2022-12-18T13:51:36.222Z,70.03
2022-12-18T13:54:20.254Z,71.28
2022-12-18T13:56:51.054Z,70.64
2022-12-18T13:59:24.770Z,71.51
2022-12-18T14:01:57.106Z,70.05
2022-12-18T14:04:29.675Z,70.88
2022-12-18T14:07:04.302Z,70.32
2022-12-18T14:09:39.494Z,69.08
2022-12-18T14:12:36.014Z,69.20
2022-12-18T14:15:17.643Z,70.49
2022-12-18T14:17:47.496Z,68.69
2022-12-18T14:20:18.043Z,69.63
2022-12-18T14:22:49.282Z,69.56
2022-12-18T14:25:21.908Z,70.28
2022-12-18T14:27:55.605Z,69.42
2022-12-18T14:30:32.642Z,69.84
2022-12-18T14:33:03.978Z,70.83
2022-12-18T14:35:34.179Z,70.54
2022-12-18T14:38:24.476Z,69.93
2022-12-18T14:40:59.593Z,70.01
2022-12-18T14:43:31.027Z,70.24
2022-12-18T14:46:03.246Z,69.75
2022-12-18T14:48:40.015Z,68.93
2022-12-18T14:51:19.102Z,70.05
2022-12-18T14:53:54.841Z,69.91
2022-12-18T14:56:27.127Z,68.97
2022-12-18T14:58:59.613Z,70.26
2022-12-18T15:01:33.434Z,69.10
2022-12-18T15:04:05.304Z,70.23
2022-12-18T15:06:37.643Z,68.66
2022-12-18T15:09:22.862Z,69.97
2022-12-18T15:11:58.567Z,69.60
2022-12-18T15:14:42.368Z,69.98
2022-12-18T15:17:21.582Z,70.03
2022-12-18T15:19:54.925Z,69.72
2022-12-18T15:22:28.684Z,70.21
2022-12-18T15:25:00.703Z,69.14
2022-12-18T15:27:33.743Z,69.04
2022-12-18T15:30:19.248Z,69.83
2022-12-18T15:32:51.315Z,70.09
2022-12-18T15:35:25.290Z,70.54
2022-12-18T15:37:55.152Z,70.63
2022-12-18T15:40:26.235Z,70.45
2022-12-18T15:43:15.073Z,69.66
2022-12-18T15:45:44.693Z,70.55
2022-12-18T15:48:23.744Z,70.36
2022-12-18T15:50:57.959Z,70.76
2022-12-18T15:53:30.513Z,70.13
2022-12-18T15:56:18.283Z,69.58
2022-12-18T15:58:47.853Z,70.19
2022-12-18T16:01:29.941Z,70.22
2022-12-18T16:04:02.080Z,70.17
2022-12-18T16:06:51.084Z,70.24
2022-12-18T16:09:26.082Z,70.35
2022-12-18T16:11:56.504Z,69.68
2022-12-18T16:14:28.104Z,70.38
2022-12-18T16:17:00.244Z,69.62
2022-12-18T16:19:31.723Z,70.14
2022-12-18T16:22:01.536Z,69.64
2022-12-18T16:24:33.484Z,70.02
2022-12-18T16:27:03.294Z,70.76
2022-12-18T16:29:32.873Z,70.49
2022-12-18T16:32:03.342Z,70.34
2022-12-18T16:34:36.325Z,70.71
2022-12-18T16:37:08.275Z,70.97
2022-12-18T16:39:39.013Z,71.42
2022-12-18T16:42:13.648Z,70.39
2022-12-18T16:44:43.826Z,71.53
2022-12-18T16:47:15.326Z,71.31
2022-12-18T16:49:47.202Z,70.32
2022-12-18T16:52:17.128Z,70.62
2022-12-18T16:54:48.064Z,70.44
2022-12-18T16:57:19.683Z,70.11
2022-12-18T16:59:50.933Z,70.66
2022-12-18T17:02:23.515Z,70.04
2022-12-18T17:04:57.887Z,69.56
2022-12-18T17:07:29.514Z,71.31
2022-12-18T17:09:59.655Z,70.87
2022-12-18T17:12:29.623Z,70.32
2022-12-18T17:15:00.304Z,70.56
2022-12-18T17:17:30.151Z,69.83
2022-12-18T17:20:01.180Z,69.83
2022-12-18T17:22:30.892Z,69.14
2022-12-18T17:25:00.493Z,70.01
2022-12-18T17:27:30.084Z,69.08
2022-12-18T17:29:59.708Z,69.17
2022-12-18T17:32:29.603Z,69.05
2022-12-18T17:35:06.805Z,68.87
2022-12-18T17:37:38.049Z,70.02
2022-12-18T17:40:10.244Z,70.58
2022-12-18T17:42:39.923Z,69.18
2022-12-18T17:45:10.783Z,68.97
2022-12-18T17:47:40.772Z,69.56
2022-12-18T17:50:12.012Z,68.28
2022-12-18T17:52:42.269Z,67.31
2022-12-18T17:55:12.072Z,68.23
2022-12-18T17:57:41.860Z,68.09
2022-12-18T18:00:12.934Z,68.71
2022-12-18T18:02:43.229Z,69.22
2022-12-18T18:05:14.953Z,67.81
2022-12-18T18:07:47.516Z,66.72
2022-12-18T18:10:17.383Z,67.95
2022-12-18T18:13:04.302Z,67.54
2022-12-18T18:15:34.102Z,68.11
2022-12-18T18:18:08.784Z,67.36
2022-12-18T18:20:42.889Z,67.47
2022-12-18T18:23:12.843Z,66.88
2022-12-18T18:25:42.412Z,67.52
2022-12-18T18:28:12.133Z,67.80
2022-12-18T18:30:41.623Z,67.41
2022-12-18T18:33:12.136Z,67.50
2022-12-18T18:35:54.477Z,67.51
2022-12-18T18:38:24.346Z,67.33
2022-12-18T18:41:08.123Z,68.46
2022-12-18T18:45:13.574Z,68.29
2022-12-18T18:49:06.539Z,68.96
2022-12-18T18:51:54.625Z,69.15
2022-12-18T18:55:03.798Z,67.86
2022-12-18T18:57:49.843Z,69.35
2022-12-18T19:00:37.966Z,70.05
2022-12-18T19:03:26.750Z,70.22
2022-12-18T19:06:19.295Z,69.36
2022-12-18T19:09:07.772Z,69.80
2022-12-18T19:12:13.309Z,69.68
2022-12-18T19:15:00.835Z,70.17
2022-12-18T19:17:50.286Z,69.03
2022-12-18T19:20:39.241Z,68.89
2022-12-18T19:23:29.253Z,70.55
2022-12-18T19:26:27.678Z,68.88
2022-12-18T19:29:16.235Z,69.76
2022-12-18T19:32:03.799Z,69.31
2022-12-18T19:34:51.856Z,70.70
2022-12-18T19:37:39.952Z,69.94
2022-12-18T19:40:29.085Z,70.82
2022-12-18T19:43:17.423Z,71.03
2022-12-18T19:46:06.495Z,70.90
2022-12-18T19:48:54.394Z,70.60
2022-12-18T19:51:42.078Z,71.46
2022-12-18T19:54:31.223Z,71.02
2022-12-18T19:57:20.516Z,70.74
2022-12-18T20:00:12.876Z,72.27
2022-12-18T20:03:15.613Z,72.66
2022-12-18T20:06:10.534Z,72.79
2022-12-18T20:09:01.210Z,72.68
2022-12-18T20:11:49.383Z,72.27
2022-12-18T20:14:38.684Z,73.53
2022-12-18T20:17:26.318Z,73.02
2022-12-18T20:20:14.735Z,73.33
2022-12-18T20:23:02.433Z,74.12
2022-12-18T20:25:50.019Z,74.57
2022-12-18T20:28:37.853Z,73.97
2022-12-18T20:31:29.418Z,74.71
2022-12-18T20:34:17.475Z,74.81
2022-12-18T20:38:00.384Z,73.76
2022-12-18T20:40:48.814Z,75.37
2022-12-18T20:43:36.518Z,74.76
2022-12-18T20:46:24.854Z,75.22
2022-12-18T20:49:13.410Z,75.54
2022-12-18T20:52:03.268Z,74.92
2022-12-18T20:54:52.524Z,75.41
2022-12-18T20:57:40.451Z,74.94
2022-12-18T21:00:28.325Z,75.51
2022-12-18T21:03:16.295Z,75.96
2022-12-18T21:06:08.223Z,76.30
2022-12-18T21:08:56.185Z,76.11
2022-12-18T21:12:02.794Z,76.07
2022-12-18T21:14:50.640Z,76.22
2022-12-18T21:17:44.090Z,76.22
2022-12-18T21:20:32.425Z,76.67
2022-12-18T21:23:20.073Z,76.90
2022-12-18T21:26:26.652Z,76.93
2022-12-18T21:29:21.733Z,77.14
2022-12-18T21:32:09.439Z,77.38
2022-12-18T21:34:57.543Z,77.74
2022-12-18T21:37:45.339Z,77.43
2022-12-18T21:40:33.176Z,77.32
2022-12-18T21:43:38.663Z,77.46
2022-12-18T21:46:27.577Z,78.09
2022-12-18T21:49:17.595Z,77.68
2022-12-18T21:52:05.341Z,78.00
2022-12-18T21:54:53.324Z,77.86
2022-12-18T21:57:41.046Z,78.77
2022-12-18T22:00:28.775Z,79.10
2022-12-18T22:03:19.391Z,78.38
2022-12-18T22:06:09.838Z,78.93
2022-12-18T22:08:57.897Z,77.85
2022-12-18T22:11:46.144Z,78.63
2022-12-18T22:14:33.905Z,77.85
2022-12-18T22:17:21.486Z,78.32
2022-12-18T22:20:13.711Z,78.74
2022-12-18T22:23:04.100Z,78.56
2022-12-18T22:25:53.840Z,78.01
2022-12-18T22:28:58.955Z,79.33
2022-12-18T22:31:46.432Z,78.47
2022-12-18T22:34:36.546Z,78.64
2022-12-18T22:37:25.680Z,78.30
2022-12-18T22:40:24.621Z,78.54
2022-12-18T22:43:13.510Z,79.28
2022-12-18T22:46:04.236Z,78.96
2022-12-18T22:48:52.204Z,78.59
2022-12-18T22:51:39.823Z,79.08
2022-12-18T22:54:29.044Z,79.00
2022-12-18T22:57:16.968Z,79.04
2022-12-18T23:00:04.777Z,78.49
2022-12-18T23:02:59.226Z,79.14
2022-12-18T23:05:50.502Z,78.73
2022-12-18T23:08:40.034Z,79.92
2022-12-18T23:11:29.357Z,78.96
2022-12-18T23:14:17.622Z,79.94
2022-12-18T23:17:05.494Z,79.97
2022-12-18T23:19:52.973Z,80.94
2022-12-18T23:22:40.367Z,81.95
2022-12-18T23:25:28.339Z,82.07
2022-12-18T23:28:17.354Z,83.21
2022-12-18T23:31:07.491Z,83.16
2022-12-18T23:33:56.954Z,83.31
2022-12-18T23:36:46.206Z,84.07
2022-12-18T23:39:34.276Z,84.32
2022-12-18T23:42:22.127Z,85.09
2022-12-18T23:45:17.628Z,86.06
2022-12-18T23:48:06.244Z,84.86
2022-12-18T23:50:53.971Z,85.94
2022-12-18T23:53:42.340Z,86.06
2022-12-18T23:56:31.300Z,86.94
2022-12-18T23:59:23.956Z,87.25
